HKJK METAR and TAF | Updated Today

HKJK METAR

Jomo Kenyatta International Airport

Observation time: 32 min. ago

HKJK 251930Z 25004KT 9999 BKN020 20/14 Q1025

Need help? Read our tutorial on how to read METARs or read the parsed version below.

Jomo Kenyatta International Airport (HKJK) METAR

  • Weather conditions on Wed, 25 May 2022 19:30:00 +0000 (32 min. ago):
  • Present conditions: Dry
  • Clouds: Broken sky at 610 meters
  • Visibility: Greater than 10 km
  • Wind: 250 degrees at 4 knots
  • Temperature: 20 celsius
  • Dew point: 14 celsius
  • Pressure: 1025 millibars
  • Remarks: None


Useful to know...

HKJK TAF

Jomo Kenyatta International Airport

TAF HKJK 251700Z 2518/2624 26008KT 9999 BKN025 BECMG 2600/2603 22002 KT SCT020 BECMG 2608/2611 13010KT SCT025
Observation time: 3:02 hr. ago
Need help? Read our tutorial on how to read TAFs or read the parsed version below.

Parsed version of TAF for Jomo Kenyatta International Airport (HKJK)

  • From 25 May at 18:00 UTC, to day 26 of the month at 24:00 UTC
  • Clouds: Broken sky at 762 meters
  • Visibility: Greater than 10 km
  • Wind: 260 degrees at 8
  • Expected to arise soon, from 26 May at 00:00 UTC, to day 26 of the month at 03:00 UTC
  • Clouds: Scattered at 610 meters
  • Expected to arise soon, from 26 May at 08:00 UTC, to day 26 of the month at 11:00 UTC
  • Clouds: Scattered at 762 meters
  • Wind: 130 degrees at 10